Time;durP1;ratioP1;P1;durP2;ratioP2;P2;SDS_P1;SDS_P2;PMS_P1;PMS_P2;Temp;Humidity;BMP_temperature;BMP_pressure;BME280_temperature;BME280_humidity;BME280_pressure;Samples;Min_cycle;Max_cycle;Signal;HPM_P1;HPM_P2
2023/09/04 00:02:00;;;;;;;3.37;3.03;;;;;;;;;;5033920;28;20267;-78
2023/09/04 00:04:25;;;;;;;2.77;2.57;;;;;;;;;;5052210;28;20179;-78
2023/09/04 00:06:51;;;;;;;2.90;2.70;;;;;;;;;;5034434;28;20189;-78
2023/09/04 00:09:16;;;;;;;3.67;3.20;;;;;;;;;;5051817;28;20201;-78
2023/09/04 00:11:41;;;;;;;2.97;2.67;;;;;;;;;;5036567;28;20212;-78
2023/09/04 00:14:06;;;;;;;3.20;3.00;;;;;;;;;;5031986;28;20228;-79
2023/09/04 00:16:32;;;;;;;2.93;2.73;;;;;;;;;;5049909;28;20178;-78
2023/09/04 00:18:57;;;;;;;3.03;2.83;;;;;;;;;;5036054;28;20189;-78
2023/09/04 00:21:22;;;;;;;3.70;3.40;;;;;;;;;;5035970;28;20204;-78
2023/09/04 00:23:47;;;;;;;2.80;2.60;;;;;;;;;;5052131;28;20195;-78
2023/09/04 00:26:13;;;;;;;3.30;2.80;;;;;;;;;;5034598;28;20262;-78
2023/09/04 00:28:38;;;;;;;4.13;3.30;;;;;;;;;;5033176;28;20335;-78
2023/09/04 00:31:03;;;;;;;6.40;3.07;;;;;;;;;;5048329;28;20186;-78
2023/09/04 00:33:28;;;;;;;2.97;2.77;;;;;;;;;;5033311;28;20187;-78
2023/09/04 00:35:53;;;;;;;3.70;3.00;;;;;;;;;;5050645;28;20272;-78
2023/09/04 00:38:19;;;;;;;3.50;3.20;;;;;;;;;;5033457;28;20177;-78
2023/09/04 00:40:44;;;;;;;2.93;2.73;;;;;;;;;;5051127;28;20210;-78
2023/09/04 00:43:09;;;;;;;3.90;3.60;;;;;;;;;;5054607;28;20213;-78
2023/09/04 00:45:34;;;;;;;4.60;3.17;;;;;;;;;;5030742;28;20325;-78
2023/09/04 00:48:00;;;;;;;5.43;3.27;;;;;;;;;;5026001;28;20204;-78
2023/09/04 00:50:25;;;;;;;3.43;3.13;;;;;;;;;;5021595;28;20203;-78
2023/09/04 00:52:52;;;;;;;3.10;2.90;;;;;;;;;;5026828;28;20192;-78
2023/09/04 00:55:18;;;;;;;3.27;2.80;;;;;;;;;;5032768;28;20193;-78
2023/09/04 00:57:43;;;;;;;3.33;3.03;;;;;;;;;;5029028;28;20213;-78
2023/09/04 01:00:12;;;;;;;3.47;3.10;;;;;;;;;;5029209;28;20192;-78
2023/09/04 01:02:38;;;;;;;3.90;3.30;;;;;;;;;;5026768;28;20209;-78
2023/09/04 01:05:11;;;;;;;3.23;2.93;;;;;;;;;;5031689;28;20176;-78
2023/09/04 01:07:37;;;;;;;4.07;3.40;;;;;;;;;;5027036;28;20231;-78
2023/09/04 01:10:03;;;;;;;3.30;2.67;;;;;;;;;;5026793;28;20186;-78
2023/09/04 01:12:42;;;;;;;3.67;3.03;;;;;;;;;;5030499;28;20242;-78
2023/09/04 01:15:08;;;;;;;4.73;3.63;;;;;;;;;;5031208;28;20189;-78
2023/09/04 01:17:34;;;;;;;3.13;2.90;;;;;;;;;;5030156;28;20274;-78
2023/09/04 01:20:12;;;;;;;3.40;3.10;;;;;;;;;;5029227;28;20308;-78
2023/09/04 01:22:37;;;;;;;3.80;3.50;;;;;;;;;;5030670;28;20237;-78
2023/09/04 01:25:02;;;;;;;3.77;3.47;;;;;;;;;;5028198;28;20213;-78
2023/09/04 01:27:31;;;;;;;3.10;2.90;;;;;;;;;;5024212;28;20307;-78
2023/09/04 01:29:58;;;;;;;3.30;3.00;;;;;;;;;;5029601;28;20181;-78
2023/09/04 01:32:30;;;;;;;4.57;3.10;;;;;;;;;;5028363;28;20181;-78
2023/09/04 01:34:56;;;;;;;3.40;3.10;;;;;;;;;;5028688;28;20265;-78
2023/09/04 01:37:22;;;;;;;3.80;3.00;;;;;;;;;;5030063;28;20179;-78
2023/09/04 01:39:48;;;;;;;3.50;3.20;;;;;;;;;;5028553;28;20193;-78
2023/09/04 01:42:13;;;;;;;3.30;3.00;;;;;;;;;;5030112;28;20179;-78
2023/09/04 01:44:40;;;;;;;4.20;3.23;;;;;;;;;;5036486;28;20239;-78
2023/09/04 01:47:06;;;;;;;3.73;3.43;;;;;;;;;;5032693;28;20199;-78
2023/09/04 01:49:31;;;;;;;3.50;3.20;;;;;;;;;;5032925;28;20189;-78
2023/09/04 01:52:00;;;;;;;4.10;3.27;;;;;;;;;;5049835;28;20186;-78
2023/09/04 01:54:25;;;;;;;3.93;3.57;;;;;;;;;;5032911;28;20230;-78
2023/09/04 01:56:50;;;;;;;2.90;2.63;;;;;;;;;;5034703;28;20176;-78
2023/09/04 01:59:15;;;;;;;3.20;2.90;;;;;;;;;;5048878;28;20239;-78
2023/09/04 02:01:40;;;;;;;4.40;3.73;;;;;;;;;;5049317;28;20182;-78
2023/09/04 02:04:06;;;;;;;3.73;3.40;;;;;;;;;;5054701;28;20264;-78
2023/09/04 02:06:31;;;;;;;4.37;3.60;;;;;;;;;;5037321;28;20191;-78
2023/09/04 02:08:56;;;;;;;4.40;3.77;;;;;;;;;;5042643;28;20264;-78
2023/09/04 02:11:21;;;;;;;3.80;3.23;;;;;;;;;;5033315;28;20193;-78
2023/09/04 02:13:49;;;;;;;3.63;3.33;;;;;;;;;;5032037;28;20211;-78
2023/09/04 02:16:14;;;;;;;3.10;2.80;;;;;;;;;;5042930;28;20175;-78
2023/09/04 02:18:39;;;;;;;3.73;3.43;;;;;;;;;;5047644;28;20197;-78
2023/09/04 02:21:05;;;;;;;4.00;3.60;;;;;;;;;;5047845;28;20268;-78
2023/09/04 02:23:30;;;;;;;3.57;3.27;;;;;;;;;;5045197;28;20209;-78
2023/09/04 02:25:55;;;;;;;3.77;3.40;;;;;;;;;;5032684;28;20175;-78
2023/09/04 02:28:21;;;;;;;4.23;3.47;;;;;;;;;;5031788;28;20180;-78
2023/09/04 02:30:46;;;;;;;3.60;3.30;;;;;;;;;;5028402;28;20173;-78
2023/09/04 02:33:11;;;;;;;3.70;3.40;;;;;;;;;;5032528;28;20174;-78
2023/09/04 02:35:36;;;;;;;4.03;3.47;;;;;;;;;;5034123;28;20190;-78
2023/09/04 02:38:01;;;;;;;4.60;3.73;;;;;;;;;;5050111;28;20237;-78
2023/09/04 02:40:27;;;;;;;5.63;3.60;;;;;;;;;;5027578;28;20190;-78
2023/09/04 02:42:52;;;;;;;4.73;3.97;;;;;;;;;;5031930;28;20204;-78
2023/09/04 02:45:17;;;;;;;3.57;3.27;;;;;;;;;;5023925;28;20236;-78
2023/09/04 02:47:43;;;;;;;3.80;3.40;;;;;;;;;;5030261;28;20195;-78
2023/09/04 02:50:09;;;;;;;4.50;3.97;;;;;;;;;;5026612;28;20199;-78
2023/09/04 02:52:34;;;;;;;4.17;3.77;;;;;;;;;;5032187;28;20223;-78
2023/09/04 02:55:00;;;;;;;4.93;3.20;;;;;;;;;;5029302;28;20190;-78
2023/09/04 02:57:26;;;;;;;3.60;3.30;;;;;;;;;;5028294;28;20220;-78
2023/09/04 02:59:51;;;;;;;4.13;3.53;;;;;;;;;;5024899;28;20188;-78
2023/09/04 03:02:16;;;;;;;3.87;3.57;;;;;;;;;;5027025;28;20175;-78
2023/09/04 03:04:41;;;;;;;3.83;3.47;;;;;;;;;;5025419;28;20195;-78
2023/09/04 03:07:06;;;;;;;3.57;3.10;;;;;;;;;;5028258;28;20183;-78
2023/09/04 03:09:32;;;;;;;4.13;3.73;;;;;;;;;;5021259;28;20204;-78
2023/09/04 03:11:58;;;;;;;5.07;3.70;;;;;;;;;;5028928;28;20244;-78
2023/09/04 03:14:23;;;;;;;3.77;3.47;;;;;;;;;;5034532;28;20176;-78
2023/09/04 03:16:48;;;;;;;4.13;3.70;;;;;;;;;;5030506;28;20176;-78
2023/09/04 03:19:13;;;;;;;4.20;3.87;;;;;;;;;;5032407;28;20219;-78
2023/09/04 03:21:38;;;;;;;5.37;3.77;;;;;;;;;;5030509;28;20179;-78
2023/09/04 03:26:31;;;;;;;4.07;3.77;;;;;;;;;;5030916;28;20256;-78
2023/09/04 03:28:56;;;;;;;3.87;3.43;;;;;;;;;;5032798;28;20226;-78
2023/09/04 03:31:21;;;;;;;3.70;3.37;;;;;;;;;;5032679;28;20181;-78
2023/09/04 03:33:47;;;;;;;4.80;4.40;;;;;;;;;;5032412;28;20184;-78
2023/09/04 03:36:12;;;;;;;4.10;3.80;;;;;;;;;;5033444;28;20196;-78
2023/09/04 03:38:40;;;;;;;4.53;4.13;;;;;;;;;;5031809;28;20181;-78
2023/09/04 03:41:05;;;;;;;26.07;6.70;;;;;;;;;;5031572;28;20369;-78
2023/09/04 03:43:31;;;;;;;4.40;4.00;;;;;;;;;;5031804;28;20283;-78
2023/09/04 03:45:56;;;;;;;5.00;4.60;;;;;;;;;;5033968;28;20183;-78
2023/09/04 03:48:22;;;;;;;4.53;4.13;;;;;;;;;;5031103;28;20204;-78
2023/09/04 03:50:47;;;;;;;4.60;4.20;;;;;;;;;;5031062;28;20175;-78
2023/09/04 03:53:13;;;;;;;3.97;3.60;;;;;;;;;;5032414;28;20272;-78
2023/09/04 03:55:38;;;;;;;5.63;3.80;;;;;;;;;;5031662;28;20271;-78
2023/09/04 03:58:03;;;;;;;10.60;4.57;;;;;;;;;;5030526;28;20176;-78
2023/09/04 04:00:30;;;;;;;4.93;4.43;;;;;;;;;;5030156;28;20238;-78
2023/09/04 04:02:56;;;;;;;12.47;4.40;;;;;;;;;;5031664;28;20214;-78
2023/09/04 04:05:21;;;;;;;11.90;5.27;;;;;;;;;;5050933;28;20178;-78
2023/09/04 04:07:46;;;;;;;5.13;4.07;;;;;;;;;;5024883;28;20171;-78
2023/09/04 04:10:12;;;;;;;5.23;4.07;;;;;;;;;;5029992;28;20186;-78
2023/09/04 04:12:37;;;;;;;4.87;4.13;;;;;;;;;;5036356;28;20182;-78
2023/09/04 04:15:05;;;;;;;4.93;3.70;;;;;;;;;;5028178;28;20202;-78
2023/09/04 04:17:31;;;;;;;4.30;3.90;;;;;;;;;;5031612;28;20185;-78
2023/09/04 04:19:56;;;;;;;4.00;3.70;;;;;;;;;;5044506;28;20287;-78
2023/09/04 04:22:22;;;;;;;4.90;4.27;;;;;;;;;;5031347;28;20270;-78
2023/09/04 04:24:47;;;;;;;4.40;4.10;;;;;;;;;;5024276;28;20258;-78
2023/09/04 04:27:12;;;;;;;7.07;5.03;;;;;;;;;;5031119;28;20178;-77
2023/09/04 04:29:38;;;;;;;10.43;9.27;;;;;;;;;;5029334;28;20181;-78
2023/09/04 04:32:03;;;;;;;7.00;6.30;;;;;;;;;;5029660;28;20208;-78
2023/09/04 04:34:29;;;;;;;5.40;4.90;;;;;;;;;;5032262;28;20214;-78
2023/09/04 04:36:55;;;;;;;8.27;5.23;;;;;;;;;;5039262;28;20180;-77
2023/09/04 04:39:20;;;;;;;6.13;4.43;;;;;;;;;;5030501;28;20182;-76
2023/09/04 04:41:46;;;;;;;6.03;3.70;;;;;;;;;;5030751;28;20214;-78
2023/09/04 04:44:11;;;;;;;4.97;4.47;;;;;;;;;;5031257;28;20235;-78
2023/09/04 04:46:36;;;;;;;5.80;5.30;;;;;;;;;;5032606;28;20235;-77
2023/09/04 04:49:02;;;;;;;5.63;4.67;;;;;;;;;;5029099;28;20217;-77
2023/09/04 04:51:27;;;;;;;11.80;5.37;;;;;;;;;;5027753;28;20184;-77
2023/09/04 04:53:52;;;;;;;4.77;4.27;;;;;;;;;;5032403;28;20240;-78
2023/09/04 04:56:17;;;;;;;7.03;5.27;;;;;;;;;;5030389;28;20174;-77
2023/09/04 04:58:42;;;;;;;4.80;4.40;;;;;;;;;;5028236;28;20185;-77
2023/09/04 05:01:08;;;;;;;4.80;4.30;;;;;;;;;;5028722;28;20185;-77
2023/09/04 05:03:33;;;;;;;4.70;3.50;;;;;;;;;;5028657;28;20295;-77
2023/09/04 05:05:58;;;;;;;5.80;4.37;;;;;;;;;;5034431;28;20181;-78
2023/09/04 05:08:23;;;;;;;10.60;4.80;;;;;;;;;;5028930;28;20318;-78
2023/09/04 05:10:57;;;;;;;6.23;4.67;;;;;;;;;;5031777;28;20167;-79
2023/09/04 05:13:22;;;;;;;7.20;5.33;;;;;;;;;;5026675;28;20190;-79
2023/09/04 05:15:48;;;;;;;4.60;4.20;;;;;;;;;;5025356;28;20183;-79
2023/09/04 05:18:13;;;;;;;5.17;4.77;;;;;;;;;;5027437;28;20181;-79
2023/09/04 05:20:38;;;;;;;4.47;4.07;;;;;;;;;;5024287;28;20175;-79
2023/09/04 05:23:03;;;;;;;5.60;4.27;;;;;;;;;;5023483;28;20240;-78
2023/09/04 05:25:29;;;;;;;4.10;3.80;;;;;;;;;;5021495;28;20235;-79
2023/09/04 05:27:54;;;;;;;8.63;4.57;;;;;;;;;;5038529;28;20180;-79
2023/09/04 05:30:19;;;;;;;4.03;3.70;;;;;;;;;;5022750;28;20256;-79
2023/09/04 05:32:44;;;;;;;4.90;4.40;;;;;;;;;;5023792;28;20178;-78
2023/09/04 05:35:09;;;;;;;10.50;4.97;;;;;;;;;;5027947;28;20188;-79
2023/09/04 05:37:35;;;;;;;4.43;3.73;;;;;;;;;;5030054;28;20182;-78
2023/09/04 05:40:00;;;;;;;4.60;4.20;;;;;;;;;;5030058;28;20289;-79
2023/09/04 05:42:25;;;;;;;5.20;4.23;;;;;;;;;;5029305;28;20454;-79
2023/09/04 05:44:50;;;;;;;4.80;3.90;;;;;;;;;;5032634;28;20246;-79
2023/09/04 05:47:16;;;;;;;5.33;4.90;;;;;;;;;;5026427;28;20188;-77
2023/09/04 05:49:41;;;;;;;5.10;4.60;;;;;;;;;;5028895;28;20183;-79
2023/09/04 05:52:06;;;;;;;5.27;4.50;;;;;;;;;;5028223;28;20194;-79
2023/09/04 05:54:31;;;;;;;6.77;4.53;;;;;;;;;;5022771;28;20181;-79
2023/09/04 05:56:56;;;;;;;5.33;4.83;;;;;;;;;;5023362;28;20243;-79
2023/09/04 05:59:22;;;;;;;6.17;4.93;;;;;;;;;;5021928;28;20212;-79
2023/09/04 06:01:47;;;;;;;5.20;4.80;;;;;;;;;;5023518;28;20193;-79
2023/09/04 06:04:12;;;;;;;5.10;4.60;;;;;;;;;;5022735;28;20205;-79
2023/09/04 06:06:38;;;;;;;5.17;4.63;;;;;;;;;;5031799;28;20319;-78
2023/09/04 06:09:04;;;;;;;5.30;4.23;;;;;;;;;;5029876;28;20236;-79
2023/09/04 06:11:29;;;;;;;4.50;4.10;;;;;;;;;;5028019;28;20185;-78
2023/09/04 06:13:55;;;;;;;5.60;5.00;;;;;;;;;;5026087;28;20253;-79
2023/09/04 06:16:21;;;;;;;4.83;4.40;;;;;;;;;;5030005;28;20175;-79
2023/09/04 06:18:46;;;;;;;5.20;4.70;;;;;;;;;;5029798;28;20183;-79
2023/09/04 06:21:12;;;;;;;9.10;4.97;;;;;;;;;;5029230;28;20179;-79
2023/09/04 06:23:37;;;;;;;14.27;5.60;;;;;;;;;;5031503;28;20248;-79
2023/09/04 06:26:02;;;;;;;5.30;4.43;;;;;;;;;;5025767;28;20214;-79
2023/09/04 06:28:28;;;;;;;5.27;4.40;;;;;;;;;;5031630;28;20186;-79
2023/09/04 06:30:54;;;;;;;4.90;4.50;;;;;;;;;;5029771;28;20190;-79
2023/09/04 06:33:20;;;;;;;4.80;4.27;;;;;;;;;;5030281;28;20176;-79
2023/09/04 06:35:45;;;;;;;5.83;5.13;;;;;;;;;;5030127;28;20207;-79
2023/09/04 06:38:12;;;;;;;5.13;4.63;;;;;;;;;;5030323;28;20187;-79
2023/09/04 06:40:37;;;;;;;5.87;5.27;;;;;;;;;;5027419;28;20233;-79
2023/09/04 06:43:03;;;;;;;5.53;5.03;;;;;;;;;;5033431;28;20286;-79
2023/09/04 06:45:28;;;;;;;10.50;6.00;;;;;;;;;;5031352;28;20189;-79
2023/09/04 06:47:53;;;;;;;7.47;4.83;;;;;;;;;;5029638;28;20192;-79
2023/09/04 06:50:18;;;;;;;4.93;4.53;;;;;;;;;;5031445;28;20178;-79
2023/09/04 06:52:44;;;;;;;5.43;4.60;;;;;;;;;;5034088;28;20187;-79
2023/09/04 06:55:09;;;;;;;5.07;4.67;;;;;;;;;;5035500;28;20181;-79
2023/09/04 06:57:34;;;;;;;4.70;4.20;;;;;;;;;;5031545;28;20184;-79
2023/09/04 07:00:06;;;;;;;48.80;8.83;;;;;;;;;;5031391;28;20192;-79
2023/09/04 07:02:32;;;;;;;6.23;4.97;;;;;;;;;;5033101;28;20182;-79
2023/09/04 07:04:57;;;;;;;4.97;4.57;;;;;;;;;;5031339;28;20176;-78
2023/09/04 07:07:22;;;;;;;5.67;5.17;;;;;;;;;;5032935;28;20184;-79
2023/09/04 07:09:48;;;;;;;5.20;4.70;;;;;;;;;;5043187;28;20170;-79
2023/09/04 07:12:16;;;;;;;5.67;4.87;;;;;;;;;;5035399;28;20180;-79
2023/09/04 07:14:41;;;;;;;4.80;4.30;;;;;;;;;;5032671;28;20184;-80
2023/09/04 07:17:06;;;;;;;5.70;4.53;;;;;;;;;;5031502;28;20193;-79
2023/09/04 07:19:31;;;;;;;6.30;4.40;;;;;;;;;;5025576;28;20174;-79
2023/09/04 07:21:57;;;;;;;5.07;4.67;;;;;;;;;;5035610;28;20180;-79
2023/09/04 07:24:22;;;;;;;4.63;4.13;;;;;;;;;;5032353;28;20213;-78
2023/09/04 07:26:47;;;;;;;4.90;4.50;;;;;;;;;;5035359;28;20248;-79
2023/09/04 07:29:12;;;;;;;4.63;4.23;;;;;;;;;;5035669;28;20250;-79
2023/09/04 07:31:38;;;;;;;5.20;4.70;;;;;;;;;;5032697;28;20204;-79
2023/09/04 07:34:03;;;;;;;5.20;4.67;;;;;;;;;;5029658;28;20188;-79
2023/09/04 07:36:28;;;;;;;5.70;4.73;;;;;;;;;;5031538;28;20188;-79
2023/09/04 07:38:53;;;;;;;5.33;4.83;;;;;;;;;;5032692;28;20208;-79
2023/09/04 07:41:19;;;;;;;5.10;4.57;;;;;;;;;;5030481;28;20215;-79
2023/09/04 07:43:44;;;;;;;48.43;8.77;;;;;;;;;;5033140;28;20219;-79
2023/09/04 07:46:09;;;;;;;6.27;4.50;;;;;;;;;;5032670;28;20179;-79
2023/09/04 07:48:34;;;;;;;6.97;4.03;;;;;;;;;;5031291;28;20194;-79
2023/09/04 07:51:00;;;;;;;5.00;4.60;;;;;;;;;;5030081;28;20216;-79
2023/09/04 07:53:25;;;;;;;4.90;4.50;;;;;;;;;;5032296;28;20178;-79
2023/09/04 07:55:51;;;;;;;5.03;4.53;;;;;;;;;;5028535;28;20183;-79
2023/09/04 07:58:16;;;;;;;5.43;4.20;;;;;;;;;;5033401;28;20190;-79
2023/09/04 08:00:43;;;;;;;4.17;3.87;;;;;;;;;;5031759;28;20236;-79
2023/09/04 08:03:08;;;;;;;4.50;4.10;;;;;;;;;;5036183;28;20208;-79
2023/09/04 08:05:33;;;;;;;19.77;5.07;;;;;;;;;;5032115;28;20177;-79
2023/09/04 08:07:58;;;;;;;3.80;3.50;;;;;;;;;;5032227;28;20179;-79
2023/09/04 08:10:24;;;;;;;4.60;4.20;;;;;;;;;;5030547;28;20221;-79
2023/09/04 08:12:49;;;;;;;5.07;3.30;;;;;;;;;;5027846;28;20210;-79
2023/09/04 08:15:14;;;;;;;3.87;3.57;;;;;;;;;;5029014;28;20269;-79
2023/09/04 08:17:41;;;;;;;10.37;4.27;;;;;;;;;;5032978;28;20182;-79
2023/09/04 08:20:06;;;;;;;5.33;4.30;;;;;;;;;;5027997;28;20180;-79
2023/09/04 08:22:31;;;;;;;4.83;3.30;;;;;;;;;;5031153;28;20241;-79
2023/09/04 08:24:57;;;;;;;3.73;3.40;;;;;;;;;;5030145;28;20229;-72
2023/09/04 08:27:22;;;;;;;4.07;3.67;;;;;;;;;;5031787;28;20224;-72
2023/09/04 08:29:50;;;;;;;4.40;4.00;;;;;;;;;;5028598;28;20184;-72
2023/09/04 08:32:15;;;;;;;5.30;4.50;;;;;;;;;;5028966;28;20181;-73
2023/09/04 08:34:40;;;;;;;4.20;3.90;;;;;;;;;;5029952;28;20181;-72
2023/09/04 08:37:05;;;;;;;3.67;3.37;;;;;;;;;;5031293;28;20185;-72
2023/09/04 08:39:31;;;;;;;6.43;4.30;;;;;;;;;;5029867;28;20201;-72
2023/09/04 08:41:56;;;;;;;13.30;6.30;;;;;;;;;;5030294;28;20198;-72
2023/09/04 08:44:21;;;;;;;4.17;3.53;;;;;;;;;;5026255;28;20227;-72
2023/09/04 08:46:49;;;;;;;4.77;3.37;;;;;;;;;;5028486;28;20184;-72
2023/09/04 08:49:16;;;;;;;4.47;3.70;;;;;;;;;;5026990;28;20184;-72
2023/09/04 08:51:42;;;;;;;5.33;3.83;;;;;;;;;;5030285;28;20190;-72
2023/09/04 08:54:07;;;;;;;3.70;3.40;;;;;;;;;;5024954;28;20195;-72
2023/09/04 08:56:32;;;;;;;4.50;4.10;;;;;;;;;;5025981;28;20196;-72
2023/09/04 08:58:58;;;;;;;4.20;3.90;;;;;;;;;;5029596;28;20182;-72
2023/09/04 09:01:26;;;;;;;3.57;3.23;;;;;;;;;;5033084;28;20200;-72
2023/09/04 09:03:52;;;;;;;3.67;3.37;;;;;;;;;;5028687;28;20198;-72
2023/09/04 09:06:17;;;;;;;7.43;3.83;;;;;;;;;;5029292;28;20196;-72
2023/09/04 09:08:43;;;;;;;3.73;3.43;;;;;;;;;;5024800;28;20194;-72
2023/09/04 09:11:08;;;;;;;10.43;3.70;;;;;;;;;;5027610;28;20204;-72
2023/09/04 09:13:34;;;;;;;6.40;3.20;;;;;;;;;;5028964;28;20254;-72
2023/09/04 09:15:59;;;;;;;3.80;3.50;;;;;;;;;;5028126;28;20183;-73
2023/09/04 09:18:38;;;;;;;4.67;3.57;;;;;;;;;;5029879;28;20185;-72
2023/09/04 09:21:23;;;;;;;4.00;3.70;;;;;;;;;;5029814;28;20272;-72
2023/09/04 09:23:48;;;;;;;4.43;3.50;;;;;;;;;;5030027;28;20221;-72
2023/09/04 09:26:14;;;;;;;4.07;3.77;;;;;;;;;;5028239;28;20208;-73
2023/09/04 09:28:41;;;;;;;3.70;3.40;;;;;;;;;;5030319;28;20203;-72
2023/09/04 09:31:06;;;;;;;3.60;3.30;;;;;;;;;;5040590;28;20352;-73
2023/09/04 09:33:34;;;;;;;3.90;3.17;;;;;;;;;;5027042;28;20187;-72
2023/09/04 09:36:11;;;;;;;129.73;30.10;;;;;;;;;;5026941;28;20186;-72
2023/09/04 09:38:42;;;;;;;4.80;3.60;;;;;;;;;;5041956;28;20194;-72
2023/09/04 09:41:07;;;;;;;5.53;3.73;;;;;;;;;;5026836;28;20451;-72
2023/09/04 09:43:32;;;;;;;3.37;3.17;;;;;;;;;;5027816;28;20219;-73
2023/09/04 09:46:00;;;;;;;4.40;3.10;;;;;;;;;;5030099;28;20181;-72
2023/09/04 09:48:26;;;;;;;3.57;3.27;;;;;;;;;;5029521;28;20188;-72
2023/09/04 09:50:53;;;;;;;3.80;3.47;;;;;;;;;;5028803;28;20175;-72
2023/09/04 09:53:18;;;;;;;3.93;3.53;;;;;;;;;;5027276;28;20185;-72
2023/09/04 09:55:44;;;;;;;3.87;3.57;;;;;;;;;;5028782;28;20253;-72
2023/09/04 09:58:10;;;;;;;6.90;3.70;;;;;;;;;;5028486;28;20205;-72
2023/09/04 10:00:35;;;;;;;3.93;3.30;;;;;;;;;;5026780;28;20189;-73
2023/09/04 10:03:01;;;;;;;3.17;2.87;;;;;;;;;;5028634;28;20205;-72
2023/09/04 10:05:28;;;;;;;32.50;6.20;;;;;;;;;;5025676;28;20179;-72
2023/09/04 10:07:56;;;;;;;5.00;2.83;;;;;;;;;;5026367;28;20186;-72
2023/09/04 10:10:21;;;;;;;5.97;3.87;;;;;;;;;;5027104;28;20210;-72
2023/09/04 10:12:49;;;;;;;3.70;3.40;;;;;;;;;;5027821;28;20192;-72
2023/09/04 10:15:18;;;;;;;3.40;3.10;;;;;;;;;;5029844;28;20174;-72
2023/09/04 10:17:46;;;;;;;4.43;3.30;;;;;;;;;;5027478;28;20230;-73
2023/09/04 10:20:12;;;;;;;4.13;3.50;;;;;;;;;;5028876;28;20275;-72
2023/09/04 10:22:39;;;;;;;5.23;3.53;;;;;;;;;;5027662;28;20193;-72
2023/09/04 10:25:09;;;;;;;5.30;3.03;;;;;;;;;;5025670;28;20222;-72
2023/09/04 10:27:40;;;;;;;5.70;3.00;;;;;;;;;;5025262;28;20182;-72
2023/09/04 10:30:06;;;;;;;3.33;3.03;;;;;;;;;;5025597;28;20177;-72
2023/09/04 10:32:31;;;;;;;4.47;3.50;;;;;;;;;;5032939;28;20178;-72
2023/09/04 10:34:56;;;;;;;3.43;3.13;;;;;;;;;;5028898;28;20202;-72
2023/09/04 10:37:26;;;;;;;3.55;3.22;;;;;;;;;;5030567;28;20177;-73
2023/09/04 10:39:52;;;;;;;3.35;3.05;;;;;;;;;;5029136;28;20237;-72
2023/09/04 10:42:17;;;;;;;3.00;2.80;;;;;;;;;;5029273;28;20178;-72
2023/09/04 10:44:53;;;;;;;3.00;2.80;;;;;;;;;;5025409;28;20207;-72
2023/09/04 10:47:18;;;;;;;3.88;2.95;;;;;;;;;;5026245;28;20183;-72
2023/09/04 10:49:44;;;;;;;3.45;2.90;;;;;;;;;;5026125;28;20189;-72
2023/09/04 10:52:10;;;;;;;3.25;2.97;;;;;;;;;;5031013;28;20178;-72
2023/09/04 10:54:35;;;;;;;5.00;3.10;;;;;;;;;;5033885;28;20190;-72
2023/09/04 10:57:05;;;;;;;3.78;3.25;;;;;;;;;;5029872;28;20182;-72
2023/09/04 10:59:31;;;;;;;3.50;3.20;;;;;;;;;;5025393;28;20270;-72
2023/09/04 11:01:56;;;;;;;3.30;3.00;;;;;;;;;;5030670;28;20278;-72
2023/09/04 11:04:43;;;;;;;3.08;2.88;;;;;;;;;;5027948;28;20213;-72
2023/09/04 11:07:20;;;;;;;4.55;3.00;;;;;;;;;;5030190;28;20197;-72
2023/09/04 11:09:46;;;;;;;4.32;3.42;;;;;;;;;;5040610;28;20217;-73
2023/09/04 11:12:17;;;;;;;3.53;3.22;;;;;;;;;;5027563;28;20225;-72
2023/09/04 11:14:47;;;;;;;3.53;3.22;;;;;;;;;;5024249;28;20218;-72
2023/09/04 11:17:15;;;;;;;2.92;2.63;;;;;;;;;;5024132;28;20227;-72
2023/09/04 11:19:40;;;;;;;4.65;3.50;;;;;;;;;;5031039;28;20190;-72
2023/09/04 11:22:13;;;;;;;4.35;3.58;;;;;;;;;;5024792;28;20178;-73
2023/09/04 11:24:39;;;;;;;4.70;3.30;;;;;;;;;;5029130;28;20223;-72
2023/09/04 11:27:04;;;;;;;3.63;3.20;;;;;;;;;;5025249;28;20178;-72
2023/09/04 11:29:31;;;;;;;3.53;3.22;;;;;;;;;;5026583;28;20179;-72
2023/09/04 11:31:56;;;;;;;3.15;2.85;;;;;;;;;;5022690;28;20186;-72
2023/09/04 11:34:22;;;;;;;4.22;3.53;;;;;;;;;;5026710;28;20183;-72
2023/09/04 11:36:47;;;;;;;4.25;3.63;;;;;;;;;;5026050;28;20183;-73
2023/09/04 11:39:13;;;;;;;3.75;3.17;;;;;;;;;;5025351;28;20221;-72
2023/09/04 11:41:38;;;;;;;3.20;2.90;;;;;;;;;;5033568;28;20193;-72
2023/09/04 11:44:04;;;;;;;3.30;3.00;;;;;;;;;;5025295;28;20298;-72
2023/09/04 11:46:29;;;;;;;4.50;3.33;;;;;;;;;;5029735;28;20202;-72
2023/09/04 11:48:55;;;;;;;3.28;2.97;;;;;;;;;;5027176;28;20179;-73
2023/09/04 11:51:21;;;;;;;3.60;3.30;;;;;;;;;;5030688;28;20179;-72
2023/09/04 11:53:46;;;;;;;3.00;2.80;;;;;;;;;;5033210;28;20248;-72
2023/09/04 11:56:12;;;;;;;4.03;3.65;;;;;;;;;;5030309;28;20253;-72
2023/09/04 11:58:38;;;;;;;3.90;3.50;;;;;;;;;;5032975;28;20213;-72
2023/09/04 12:01:03;;;;;;;3.58;3.28;;;;;;;;;;5031804;28;20179;-72
2023/09/04 12:03:28;;;;;;;7.20;3.53;;;;;;;;;;5028063;28;20211;-72
2023/09/04 12:05:54;;;;;;;4.15;2.80;;;;;;;;;;5029945;28;20175;-72
2023/09/04 12:08:20;;;;;;;3.75;3.33;;;;;;;;;;5031603;28;20185;-72
2023/09/04 12:10:45;;;;;;;3.47;3.15;;;;;;;;;;5031982;28;20179;-72
2023/09/04 12:13:11;;;;;;;3.20;2.92;;;;;;;;;;5030124;28;20191;-73
2023/09/04 12:15:38;;;;;;;3.30;3.03;;;;;;;;;;5029547;28;20194;-70
2023/09/04 12:18:03;;;;;;;4.07;3.28;;;;;;;;;;5032269;28;20190;-70
2023/09/04 12:20:35;;;;;;;3.47;3.10;;;;;;;;;;5033214;28;20183;-70
2023/09/04 12:23:01;;;;;;;5.45;3.05;;;;;;;;;;5031885;28;20210;-70
2023/09/04 12:25:32;;;;;;;3.42;3.13;;;;;;;;;;5034609;28;20227;-70
2023/09/04 12:27:57;;;;;;;12.95;3.83;;;;;;;;;;5030718;28;20232;-71
2023/09/04 12:30:23;;;;;;;3.50;3.03;;;;;;;;;;5032423;28;20266;-70
2023/09/04 12:32:48;;;;;;;4.13;2.88;;;;;;;;;;5028242;28;20294;-70
2023/09/04 12:35:13;;;;;;;5.32;3.22;;;;;;;;;;5029295;28;20261;-70
2023/09/04 12:37:39;;;;;;;3.90;3.42;;;;;;;;;;5031917;28;20257;-70
2023/09/04 12:40:05;;;;;;;2.85;2.63;;;;;;;;;;5029127;28;20202;-70
2023/09/04 12:42:30;;;;;;;2.65;2.45;;;;;;;;;;5023707;28;20187;-70
2023/09/04 12:44:55;;;;;;;3.58;3.28;;;;;;;;;;5029599;28;20178;-70
2023/09/04 12:47:23;;;;;;;3.28;2.50;;;;;;;;;;5031352;28;20190;-70
2023/09/04 12:49:49;;;;;;;2.90;2.60;;;;;;;;;;5036603;28;20222;-70
2023/09/04 12:52:14;;;;;;;3.03;2.70;;;;;;;;;;5031471;28;20288;-70
2023/09/04 12:54:39;;;;;;;2.90;2.70;;;;;;;;;;5031905;28;20194;-70
2023/09/04 12:57:04;;;;;;;3.33;2.70;;;;;;;;;;5027224;28;20170;-70
2023/09/04 12:59:29;;;;;;;10.90;3.58;;;;;;;;;;5030430;28;20212;-70
2023/09/04 13:01:55;;;;;;;3.50;2.70;;;;;;;;;;5023823;28;20182;-70
2023/09/04 13:04:21;;;;;;;3.10;2.80;;;;;;;;;;5024095;28;20450;-70
2023/09/04 13:06:46;;;;;;;3.33;3.03;;;;;;;;;;5033795;28;20213;-70
2023/09/04 13:09:11;;;;;;;3.28;2.97;;;;;;;;;;5029739;28;20203;-70
2023/09/04 13:11:36;;;;;;;2.53;2.33;;;;;;;;;;5027653;28;20203;-70
2023/09/04 13:14:02;;;;;;;3.15;2.80;;;;;;;;;;5043172;28;20193;-70
2023/09/04 13:16:28;;;;;;;2.78;2.58;;;;;;;;;;5029716;28;20185;-70
2023/09/04 13:18:53;;;;;;;2.60;2.40;;;;;;;;;;5029015;28;20202;-70
2023/09/04 13:21:18;;;;;;;2.72;2.50;;;;;;;;;;5027651;28;20210;-70
2023/09/04 13:23:43;;;;;;;4.22;2.42;;;;;;;;;;5030256;28;20208;-70
2023/09/04 13:26:08;;;;;;;3.00;2.70;;;;;;;;;;5026774;28;20222;-70
2023/09/04 13:28:34;;;;;;;3.20;2.90;;;;;;;;;;5025813;28;20209;-70
2023/09/04 13:31:00;;;;;;;3.00;2.70;;;;;;;;;;5026129;28;20218;-70
2023/09/04 13:33:25;;;;;;;2.78;2.58;;;;;;;;;;5021923;28;20183;-70
2023/09/04 13:35:51;;;;;;;3.03;2.75;;;;;;;;;;5027139;28;20185;-70
2023/09/04 13:38:16;;;;;;;3.10;2.80;;;;;;;;;;5029613;28;20271;-70
2023/09/04 13:40:41;;;;;;;4.03;3.10;;;;;;;;;;5031165;28;20434;-71
2023/09/04 13:43:06;;;;;;;6.32;2.92;;;;;;;;;;5035406;28;20210;-70
2023/09/04 13:45:31;;;;;;;4.10;2.88;;;;;;;;;;5029061;28;20270;-70
2023/09/04 13:47:56;;;;;;;5.85;2.60;;;;;;;;;;5030573;28;20183;-70
2023/09/04 13:50:22;;;;;;;4.45;2.80;;;;;;;;;;5029506;28;20179;-70
2023/09/04 13:52:47;;;;;;;3.38;2.67;;;;;;;;;;5016823;28;20214;-70
2023/09/04 13:55:12;;;;;;;4.05;2.80;;;;;;;;;;5021554;28;20170;-70
2023/09/04 13:57:37;;;;;;;3.38;3.08;;;;;;;;;;5015897;28;20187;-70
2023/09/04 14:00:03;;;;;;;4.65;2.72;;;;;;;;;;5028702;28;20174;-70
2023/09/04 14:02:29;;;;;;;2.97;2.25;;;;;;;;;;5027403;28;20179;-70
2023/09/04 14:04:54;;;;;;;3.13;2.92;;;;;;;;;;5026830;28;20213;-71
2023/09/04 14:07:19;;;;;;;3.28;2.97;;;;;;;;;;5024524;28;20186;-70
2023/09/04 14:09:44;;;;;;;2.65;2.45;;;;;;;;;;5028190;28;20179;-70
2023/09/04 14:12:10;;;;;;;3.08;2.60;;;;;;;;;;5025269;28;20289;-70
2023/09/04 14:14:35;;;;;;;2.40;2.20;;;;;;;;;;5023135;28;20195;-70
2023/09/04 14:17:01;;;;;;;3.17;2.72;;;;;;;;;;5028052;28;20175;-71
2023/09/04 14:19:26;;;;;;;4.25;2.70;;;;;;;;;;5025177;28;20185;-70
2023/09/04 14:21:53;;;;;;;3.17;2.57;;;;;;;;;;5026130;28;20186;-70
2023/09/04 14:24:18;;;;;;;3.38;2.80;;;;;;;;;;5027899;28;20514;-70
2023/09/04 14:26:43;;;;;;;2.72;2.53;;;;;;;;;;5030031;28;20178;-70
2023/09/04 14:29:08;;;;;;;3.55;2.90;;;;;;;;;;5027544;28;20179;-71
2023/09/04 14:31:33;;;;;;;3.40;2.58;;;;;;;;;;5025098;28;20198;-70
2023/09/04 14:33:59;;;;;;;2.60;2.40;;;;;;;;;;5018908;28;20175;-70
2023/09/04 14:36:24;;;;;;;3.87;2.80;;;;;;;;;;5030659;28;20214;-70
2023/09/04 14:38:51;;;;;;;2.75;2.55;;;;;;;;;;5029703;28;20420;-70